createdAt,value
2023-05-24T00:01:16.430Z,9.61
2023-05-24T00:05:18.780Z,9.24
2023-05-24T00:09:20.961Z,9.44
2023-05-24T00:13:22.478Z,9.32
2023-05-24T00:17:24.614Z,9.57
2023-05-24T00:21:26.163Z,9.42
2023-05-24T00:25:27.614Z,9.28
2023-05-24T00:29:31.487Z,9.35
2023-05-24T00:33:33.760Z,9.26
2023-05-24T00:37:35.247Z,9.49
2023-05-24T00:41:36.673Z,9.55
2023-05-24T00:45:38.165Z,9.37
2023-05-24T00:49:40.111Z,9.44
2023-05-24T00:53:44.681Z,9.68
2023-05-24T00:57:46.257Z,9.33
2023-05-24T01:01:47.879Z,9.47
2023-05-24T01:05:49.410Z,9.30
2023-05-24T01:10:14.465Z,9.28
2023-05-24T01:14:46.868Z,9.28
2023-05-24T01:18:57.573Z,9.63
2023-05-24T01:23:06.367Z,9.41
2023-05-24T01:27:11.693Z,9.42
2023-05-24T01:31:15.865Z,9.20
2023-05-24T01:35:17.474Z,9.30
2023-05-24T01:39:21.076Z,9.39
2023-05-24T01:43:31.723Z,9.22
2023-05-24T01:47:45.137Z,9.30
2023-05-24T01:51:53.109Z,9.57
2023-05-24T01:55:57.177Z,9.67
2023-05-24T02:00:00.594Z,9.61
2023-05-24T02:04:02.628Z,9.57
2023-05-24T02:08:04.220Z,9.48
2023-05-24T02:12:06.255Z,9.88
2023-05-24T02:16:07.747Z,9.58
2023-05-24T02:20:10.717Z,9.59
2023-05-24T02:24:12.546Z,9.53
2023-05-24T02:28:14.121Z,9.28
2023-05-24T02:32:15.853Z,9.40
2023-05-24T02:36:17.337Z,9.56
2023-05-24T02:40:18.827Z,9.19
2023-05-24T02:44:20.452Z,9.16
2023-05-24T02:48:21.973Z,9.16
2023-05-24T02:52:23.504Z,9.29
2023-05-24T02:56:26.452Z,9.38
2023-05-24T03:00:28.583Z,9.38
2023-05-24T03:04:30.089Z,9.07
2023-05-24T03:08:31.543Z,9.18
2023-05-24T03:12:33.023Z,9.14
2023-05-24T03:16:34.517Z,9.35
2023-05-24T03:20:36.180Z,9.34
2023-05-24T03:24:38.575Z,9.64
2023-05-24T03:28:40.714Z,9.29
2023-05-24T03:32:42.189Z,9.12
2023-05-24T03:36:43.807Z,8.98
2023-05-24T03:40:45.489Z,9.40
2023-05-24T03:44:46.991Z,9.06
2023-05-24T03:48:49.718Z,9.02
2023-05-24T03:52:51.243Z,9.16
2023-05-24T03:56:53.490Z,9.42
2023-05-24T04:00:54.988Z,9.39
2023-05-24T04:04:56.480Z,9.47
2023-05-24T04:08:59.690Z,9.37
2023-05-24T04:13:01.599Z,9.38
2023-05-24T04:17:05.775Z,9.51
2023-05-24T04:21:07.323Z,9.50
2023-05-24T04:25:10.130Z,8.99
2023-05-24T04:29:11.969Z,9.33
2023-05-24T04:33:13.568Z,9.20
2023-05-24T04:37:17.102Z,9.57
2023-05-24T04:41:18.582Z,9.70
2023-05-24T04:45:20.064Z,9.70
2023-05-24T04:49:22.672Z,9.72
2023-05-24T04:53:24.473Z,9.57
2023-05-24T04:57:25.939Z,9.32
2023-05-24T05:01:27.795Z,9.58
2023-05-24T05:05:29.403Z,9.40
2023-05-24T05:09:30.865Z,9.10
2023-05-24T05:13:32.393Z,9.48
2023-05-24T05:17:33.863Z,9.05
2023-05-24T05:21:36.368Z,9.24
2023-05-24T05:25:37.878Z,9.75
2023-05-24T05:29:39.418Z,9.68
2023-05-24T05:33:40.886Z,9.71
2023-05-24T05:37:42.461Z,9.87
2023-05-24T05:41:46.045Z,9.77
2023-05-24T05:45:48.089Z,9.68
2023-05-24T05:49:49.660Z,10.03
2023-05-24T05:53:51.562Z,9.87
2023-05-24T05:57:53.081Z,10.26
2023-05-24T06:01:54.561Z,9.61
2023-05-24T06:05:56.013Z,9.75
2023-05-24T06:09:57.507Z,9.67
2023-05-24T06:13:58.991Z,10.04
2023-05-24T06:18:02.170Z,10.20
2023-05-24T06:22:04.393Z,10.21
2023-05-24T06:26:09.576Z,10.21
2023-05-24T06:30:11.482Z,10.13
2023-05-24T06:34:16.949Z,10.43
2023-05-24T06:38:18.428Z,10.07
2023-05-24T06:42:19.877Z,9.71
2023-05-24T06:46:21.372Z,9.60
2023-05-24T06:50:23.766Z,9.45
2023-05-24T06:54:25.748Z,9.96
2023-05-24T06:58:27.200Z,9.57
2023-05-24T07:02:29.001Z,9.87
2023-05-24T07:06:30.547Z,9.99
2023-05-24T07:10:32.052Z,10.37
2023-05-24T07:14:33.545Z,10.13
2023-05-24T07:18:35.009Z,10.32
2023-05-24T07:22:36.743Z,10.35
2023-05-24T07:26:38.530Z,10.02
2023-05-24T07:30:40.066Z,10.39
2023-05-24T07:34:41.674Z,10.46
2023-05-24T07:38:43.504Z,10.32
2023-05-24T07:42:47.383Z,10.24
2023-05-24T07:46:49.142Z,10.70
2023-05-24T07:50:52.024Z,10.35
2023-05-24T07:54:53.492Z,10.93
2023-05-24T07:58:59.452Z,10.42
2023-05-24T08:03:01.044Z,10.21
2023-05-24T08:07:03.315Z,10.68
2023-05-24T08:11:04.873Z,10.50
2023-05-24T08:15:07.586Z,10.62
2023-05-24T08:19:09.084Z,10.57
2023-05-24T08:23:10.603Z,10.62
2023-05-24T08:27:12.387Z,10.83
2023-05-24T08:31:13.988Z,10.91
2023-05-24T08:39:20.767Z,11.02
2023-05-24T08:43:23.038Z,10.61
2023-05-24T08:47:25.692Z,10.31
2023-05-24T08:51:27.619Z,10.43
2023-05-24T08:55:33.328Z,10.67
2023-05-24T08:59:35.163Z,10.93
2023-05-24T09:03:37.293Z,11.04
2023-05-24T09:07:39.897Z,11.06
2023-05-24T09:11:43.313Z,10.41
2023-05-24T09:15:45.026Z,10.67
2023-05-24T09:19:46.824Z,11.57
2023-05-24T09:23:49.400Z,11.48
2023-05-24T09:27:52.205Z,11.93
2023-05-24T09:31:55.845Z,11.74
2023-05-24T09:36:02.590Z,11.70
2023-05-24T09:40:06.836Z,11.28
2023-05-24T09:44:08.298Z,11.18
2023-05-24T09:48:20.532Z,11.54
2023-05-24T09:52:22.793Z,11.24
2023-05-24T09:56:24.765Z,10.94
2023-05-24T10:00:26.308Z,10.85
2023-05-24T10:04:34.375Z,11.51
2023-05-24T10:08:36.602Z,11.81
2023-05-24T10:12:42.943Z,11.21
2023-05-24T10:16:44.631Z,11.35
2023-05-24T10:20:46.461Z,11.81
2023-05-24T10:24:50.584Z,12.24
2023-05-24T10:28:57.342Z,12.48
2023-05-24T10:32:59.980Z,11.59
2023-05-24T10:37:02.972Z,11.83
2023-05-24T10:41:04.557Z,11.97
2023-05-24T10:45:31.770Z,12.60
2023-05-24T10:49:33.236Z,12.55
2023-05-24T10:53:39.781Z,12.29
2023-05-24T10:57:41.788Z,12.62
2023-05-24T11:01:43.372Z,12.47
2023-05-24T11:05:48.112Z,11.78
2023-05-24T11:09:56.930Z,12.12
2023-05-24T11:14:01.275Z,11.85
2023-05-24T11:18:15.563Z,11.74
2023-05-24T11:22:18.059Z,11.79
2023-05-24T11:26:19.651Z,12.01
2023-05-24T11:30:22.258Z,12.34
2023-05-24T11:34:24.733Z,12.69
2023-05-24T11:38:27.421Z,12.70
2023-05-24T11:42:29.333Z,13.00
2023-05-24T11:46:31.665Z,13.18
2023-05-24T11:50:49.535Z,12.84
2023-05-24T11:54:52.214Z,12.70
2023-05-24T11:59:17.873Z,12.76
2023-05-24T12:03:19.522Z,12.43
2023-05-24T12:07:23.759Z,12.64
2023-05-24T12:11:25.304Z,12.66
2023-05-24T12:15:27.017Z,12.80
2023-05-24T12:19:36.631Z,13.25
2023-05-24T12:23:39.568Z,14.49
2023-05-24T12:27:47.767Z,14.93
2023-05-24T12:31:49.790Z,14.50
2023-05-24T12:35:51.972Z,13.74
2023-05-24T12:39:54.856Z,14.07
2023-05-24T12:43:56.801Z,13.56
2023-05-24T12:47:59.838Z,13.92
2023-05-24T12:52:04.613Z,13.07
2023-05-24T12:56:06.581Z,13.35
2023-05-24T13:00:10.644Z,13.59
2023-05-24T13:04:12.157Z,13.57
2023-05-24T13:08:13.761Z,13.37
2023-05-24T13:12:15.251Z,13.68
2023-05-24T13:16:16.914Z,13.89
2023-05-24T13:20:21.988Z,13.91
2023-05-24T13:24:23.705Z,14.25
2023-05-24T13:28:25.315Z,14.67
2023-05-24T13:32:26.959Z,14.36
2023-05-24T13:36:28.566Z,14.85
2023-05-24T13:40:30.068Z,14.90
2023-05-24T13:44:32.357Z,14.63
2023-05-24T13:48:34.899Z,14.79
2023-05-24T13:52:36.902Z,14.38
2023-05-24T13:56:39.775Z,14.13
2023-05-24T14:00:42.545Z,14.50
2023-05-24T14:04:44.172Z,15.15
2023-05-24T14:08:45.918Z,15.12
2023-05-24T14:12:56.058Z,15.26
2023-05-24T14:17:05.825Z,14.83
2023-05-24T14:21:07.730Z,15.66
2023-05-24T14:25:10.278Z,15.98
2023-05-24T14:29:11.830Z,16.99
2023-05-24T14:33:13.609Z,17.26
2023-05-24T14:37:18.176Z,16.32
2023-05-24T14:41:19.729Z,18.28
2023-05-24T14:45:21.534Z,17.91
2023-05-24T14:49:23.057Z,18.39
2023-05-24T14:53:24.566Z,17.95
2023-05-24T14:57:26.184Z,18.72
2023-05-24T15:01:27.724Z,18.93
2023-05-24T15:05:29.352Z,18.95
2023-05-24T15:09:30.795Z,18.56
2023-05-24T15:13:32.317Z,17.67
2023-05-24T15:17:33.833Z,16.42
2023-05-24T15:21:37.429Z,17.73
2023-05-24T15:25:38.946Z,18.89
2023-05-24T15:29:40.445Z,17.99
2023-05-24T15:33:42.139Z,16.68
2023-05-24T15:37:43.623Z,16.60
2023-05-24T15:41:45.253Z,16.06
2023-05-24T15:45:47.460Z,16.58
2023-05-24T15:49:49.622Z,17.06
2023-05-24T15:53:52.576Z,16.13
2023-05-24T15:57:54.112Z,16.91
2023-05-24T16:01:56.528Z,18.51
2023-05-24T16:05:58.150Z,18.78
2023-05-24T16:09:59.710Z,18.69
2023-05-24T16:14:01.380Z,17.66
2023-05-24T16:18:05.472Z,17.57
2023-05-24T16:22:07.868Z,18.57
2023-05-24T16:26:09.412Z,18.21
2023-05-24T16:30:11.347Z,17.23
2023-05-24T16:34:12.895Z,17.59
2023-05-24T16:38:14.576Z,18.07
2023-05-24T16:42:16.088Z,18.44
2023-05-24T16:46:18.518Z,18.28
2023-05-24T16:50:20.505Z,19.23
2023-05-24T16:54:22.003Z,17.55
2023-05-24T16:58:24.941Z,17.93
2023-05-24T17:02:26.577Z,18.29
2023-05-24T17:06:28.334Z,18.10
2023-05-24T17:10:29.855Z,18.34
2023-05-24T17:14:31.519Z,17.88
2023-05-24T17:18:33.044Z,18.37
2023-05-24T17:22:34.638Z,16.70
2023-05-24T17:26:36.198Z,16.24
2023-05-24T17:30:37.891Z,16.90
2023-05-24T17:34:39.382Z,17.31
2023-05-24T17:38:41.898Z,17.01
2023-05-24T17:42:43.449Z,17.42
2023-05-24T17:46:45.160Z,15.40
2023-05-24T17:50:46.806Z,14.66
2023-05-24T17:54:49.323Z,15.30
2023-05-24T17:58:50.983Z,15.01
2023-05-24T18:02:52.578Z,14.82
2023-05-24T18:06:55.309Z,14.51
2023-05-24T18:10:57.253Z,13.94
2023-05-24T18:15:01.330Z,14.29
2023-05-24T18:19:02.860Z,13.76
2023-05-24T18:23:04.448Z,14.21
2023-05-24T18:27:05.956Z,14.05
2023-05-24T18:31:11.664Z,13.99
2023-05-24T18:35:16.426Z,13.54
2023-05-24T18:39:18.981Z,13.52
2023-05-24T18:43:20.593Z,13.65
2023-05-24T18:47:24.490Z,13.73
2023-05-24T18:51:26.056Z,13.63
2023-05-24T18:55:28.177Z,13.43
2023-05-24T18:59:31.690Z,13.38
2023-05-24T19:03:33.351Z,13.23
2023-05-24T19:07:35.608Z,12.92
2023-05-24T19:11:37.120Z,12.91
2023-05-24T19:15:38.634Z,12.79
2023-05-24T19:19:40.253Z,12.32
2023-05-24T19:23:42.320Z,12.50
2023-05-24T19:27:57.912Z,12.48
2023-05-24T19:32:01.147Z,12.25
2023-05-24T19:36:03.349Z,12.20
2023-05-24T19:40:06.421Z,11.81
2023-05-24T19:44:08.189Z,11.91
2023-05-24T19:48:09.929Z,11.92
2023-05-24T19:52:11.497Z,11.80
2023-05-24T19:56:13.026Z,11.69
2023-05-24T20:00:14.950Z,11.58
2023-05-24T20:04:16.650Z,11.28
2023-05-24T20:08:21.585Z,11.13
2023-05-24T20:12:23.372Z,11.14
2023-05-24T20:16:25.342Z,11.21
2023-05-24T20:20:26.993Z,11.14
2023-05-24T20:24:28.572Z,11.35
2023-05-24T20:28:31.794Z,11.57
2023-05-24T20:32:33.608Z,11.40
2023-05-24T20:36:35.142Z,11.27
2023-05-24T20:40:36.662Z,11.18
2023-05-24T20:44:38.132Z,10.96
2023-05-24T20:48:39.705Z,10.75
2023-05-24T20:52:41.469Z,10.36
2023-05-24T20:56:43.141Z,10.40
2023-05-24T21:00:44.740Z,10.19
2023-05-24T21:04:46.421Z,9.94
2023-05-24T21:08:47.891Z,10.16
2023-05-24T21:12:49.867Z,10.26
2023-05-24T21:16:51.432Z,10.22
2023-05-24T21:20:52.882Z,10.15
2023-05-24T21:24:55.854Z,10.07
2023-05-24T21:28:57.326Z,10.10
2023-05-24T21:32:59.142Z,9.57
2023-05-24T21:37:01.141Z,9.80
2023-05-24T21:41:02.802Z,9.84
2023-05-24T21:45:05.037Z,9.64
2023-05-24T21:49:06.609Z,9.80
2023-05-24T21:53:08.063Z,9.76
2023-05-24T21:57:09.544Z,9.78
2023-05-24T22:01:11.072Z,9.63
2023-05-24T22:05:12.751Z,9.64
2023-05-24T22:09:14.254Z,9.55
2023-05-24T22:13:15.818Z,9.54
2023-05-24T22:17:17.425Z,9.47
2023-05-24T22:21:21.464Z,9.20
2023-05-24T22:25:23.075Z,9.22
2023-05-24T22:29:24.548Z,9.30
2023-05-24T22:33:26.095Z,9.05
2023-05-24T22:37:27.614Z,9.05
2023-05-24T22:41:29.216Z,8.97
2023-05-24T22:45:30.953Z,8.97
2023-05-24T22:49:34.107Z,8.73
2023-05-24T22:53:37.199Z,8.86
2023-05-24T22:57:40.004Z,8.74
2023-05-24T23:01:41.540Z,8.80
2023-05-24T23:05:43.553Z,8.74
2023-05-24T23:09:45.152Z,8.35
2023-05-24T23:13:46.737Z,8.49
2023-05-24T23:17:48.375Z,8.50
2023-05-24T23:21:52.209Z,8.59
2023-05-24T23:25:53.692Z,8.21
2023-05-24T23:29:56.379Z,8.24
2023-05-24T23:33:57.841Z,8.40
2023-05-24T23:37:59.524Z,8.15
2023-05-24T23:42:02.369Z,7.98
2023-05-24T23:46:03.850Z,8.10
2023-05-24T23:50:05.912Z,8.21
2023-05-24T23:54:07.344Z,8.24
2023-05-24T23:58:08.869Z,8.07
